Time;durP1;ratioP1;P1;durP2;ratioP2;P2;SDS_P1;SDS_P2;PMS_P1;PMS_P2;Temp;Humidity;BMP_temperature;BMP_pressure;BME280_temperature;BME280_humidity;BME280_pressure;Samples;Min_cycle;Max_cycle;Signal;HPM_P1;HPM_P2
2024/01/06 00:00:04;;;;;;;123.10;60.70;;;;;;;1.86;83.17;96180.27;107764;1235;99043;-80
2024/01/06 00:02:31;;;;;;;150.10;69.50;;;;;;;1.87;83.14;96178.39;107864;1248;97908;-77
2024/01/06 00:04:57;;;;;;;111.90;56.40;;;;;;;1.86;83.25;96178.39;107829;1238;98819;-78
2024/01/06 00:07:23;;;;;;;113.40;56.60;;;;;;;1.86;83.21;96172.94;107846;1245;98869;-78
2024/01/06 00:09:50;;;;;;;100.00;52.50;;;;;;;1.89;83.29;96181.13;107801;1248;97977;-85
2024/01/06 00:12:57;;;;;;;96.80;51.40;;;;;;;1.89;83.38;96180.72;107817;1239;97829;-80
2024/01/06 00:15:24;;;;;;;104.90;54.10;;;;;;;1.89;83.40;96181.82;107816;1239;102746;-78
2024/01/06 00:17:50;;;;;;;89.30;48.40;;;;;;;1.89;83.37;96171.67;107729;1238;98808;-77
2024/01/06 00:20:17;;;;;;;83.80;45.90;;;;;;;1.89;83.38;96169.02;107705;1248;99038;-78
2024/01/06 00:22:44;;;;;;;84.70;46.20;;;;;;;1.91;83.41;96174.80;107842;1250;97917;-78
2024/01/06 00:25:10;;;;;;;80.50;46.20;;;;;;;1.93;83.46;96172.98;107802;1241;102512;-78
2024/01/06 00:27:37;;;;;;;88.40;48.60;;;;;;;1.94;83.49;96180.81;107787;1247;97987;-78
2024/01/06 00:30:04;;;;;;;93.70;52.00;;;;;;;1.96;83.47;96176.13;107776;1248;97931;-85
2024/01/06 00:32:30;;;;;;;90.50;50.10;;;;;;;1.98;83.47;96180.45;107679;1243;97978;-79
2024/01/06 00:34:57;;;;;;;85.60;47.70;;;;;;;2.00;83.54;96180.23;107903;1248;97915;-78
2024/01/06 00:37:26;;;;;;;78.40;44.50;;;;;;;2.01;83.53;96170.77;107784;1241;100221;-81
2024/01/06 00:39:55;;;;;;;78.40;44.00;;;;;;;1.98;83.55;96171.60;107803;1237;98994;-79
2024/01/06 00:42:22;;;;;;;96.60;49.80;;;;;;;1.96;83.60;96175.63;107766;1239;97919;-79
2024/01/06 00:44:48;;;;;;;111.10;54.40;;;;;;;1.96;83.71;96169.61;107877;1240;97874;-78
2024/01/06 00:47:15;;;;;;;97.70;50.90;;;;;;;1.97;83.72;96170.28;107810;1246;97876;-85
2024/01/06 00:49:41;;;;;;;87.60;46.10;;;;;;;1.98;83.63;96163.33;108001;1249;97982;-79
2024/01/06 00:52:08;;;;;;;87.50;48.50;;;;;;;1.98;83.73;96166.58;107787;1249;99131;-78
2024/01/06 00:54:34;;;;;;;90.90;48.10;;;;;;;1.99;83.70;96163.34;107769;1238;97899;-77
2024/01/06 00:57:01;;;;;;;99.30;51.40;;;;;;;2.03;83.81;96169.29;107814;1250;97886;-78
2024/01/06 00:59:27;;;;;;;91.90;49.60;;;;;;;2.03;83.83;96168.48;107828;1248;98020;-78
2024/01/06 01:01:54;;;;;;;94.00;50.40;;;;;;;2.05;83.85;96170.40;107736;1236;97895;-78
2024/01/06 01:04:20;;;;;;;93.00;48.30;;;;;;;2.07;83.91;96174.60;107811;1240;97985;-77
2024/01/06 01:06:47;;;;;;;92.20;48.80;;;;;;;2.07;83.97;96175.50;107787;1244;97970;-86
2024/01/06 01:09:14;;;;;;;78.90;44.70;;;;;;;2.05;83.98;96174.46;107783;1250;97879;-84
2024/01/06 01:11:41;;;;;;;75.10;41.80;;;;;;;2.02;83.96;96172.52;107781;1235;97945;-79
2024/01/06 01:14:08;;;;;;;82.70;44.40;;;;;;;2.02;83.98;96169.20;107806;1247;97896;-81
2024/01/06 01:16:34;;;;;;;91.10;48.00;;;;;;;2.02;84.08;96159.91;107824;1241;99141;-83
2024/01/06 01:19:01;;;;;;;82.40;44.10;;;;;;;2.03;84.08;96153.98;107829;1241;99126;-83
2024/01/06 01:21:28;;;;;;;82.70;44.90;;;;;;;2.01;84.12;96159.48;107756;1247;99182;-83
2024/01/06 01:23:54;;;;;;;95.50;49.90;;;;;;;2.01;84.17;96157.39;107871;1240;98170;-84
2024/01/06 01:26:21;;;;;;;94.40;49.60;;;;;;;2.03;84.26;96152.95;107684;1236;102923;-83
2024/01/06 01:28:47;;;;;;;88.00;47.00;;;;;;;2.06;84.27;96155.15;107685;1235;97819;-88
2024/01/06 01:31:14;;;;;;;82.60;47.40;;;;;;;2.10;84.32;96159.12;107611;1247;97885;-79
2024/01/06 01:33:40;;;;;;;82.80;44.70;;;;;;;2.14;84.35;96155.40;107853;1235;98872;-77
2024/01/06 01:36:06;;;;;;;77.90;44.60;;;;;;;2.17;84.29;96151.45;107827;1239;102447;-78
2024/01/06 01:38:33;;;;;;;76.70;42.40;;;;;;;2.16;84.19;96150.06;107810;1248;97987;-78
2024/01/06 01:40:59;;;;;;;73.40;41.30;;;;;;;2.15;84.26;96153.30;107811;1240;97966;-77
2024/01/06 01:43:28;;;;;;;69.60;39.60;;;;;;;2.17;84.19;96155.91;107930;1237;98859;-80
2024/01/06 01:45:56;;;;;;;65.20;36.20;;;;;;;2.17;84.15;96147.98;107818;1249;102167;-82
2024/01/06 01:48:24;;;;;;;64.10;35.10;;;;;;;2.15;84.08;96148.25;107644;1238;97913;-86
2024/01/06 01:50:52;;;;;;;59.40;35.20;;;;;;;2.13;84.25;96144.71;107815;1248;108021;-86
2024/01/06 01:53:18;;;;;;;62.90;36.30;;;;;;;2.12;84.21;96134.67;107868;1238;98216;-86
2024/01/06 01:55:46;;;;;;;60.90;36.60;;;;;;;2.12;84.28;96131.17;107835;1241;97993;-85
2024/01/06 01:58:14;;;;;;;64.30;37.10;;;;;;;2.13;84.35;96133.56;107941;1250;99045;-85
2024/01/06 02:00:41;;;;;;;57.60;35.00;;;;;;;2.15;84.42;96140.06;108008;1238;97852;-83
2024/01/06 02:03:09;;;;;;;60.50;37.10;;;;;;;2.17;84.51;96142.16;107845;1241;97913;-83
2024/01/06 02:05:36;;;;;;;54.10;33.70;;;;;;;2.16;84.44;96140.40;107970;1239;97892;-83
2024/01/06 02:08:02;;;;;;;59.80;33.70;;;;;;;2.16;84.52;96133.72;107962;1242;97807;-78
2024/01/06 02:10:29;;;;;;;60.40;32.70;;;;;;;2.15;84.56;96128.55;107947;1238;99129;-80
2024/01/06 02:12:55;;;;;;;58.50;34.40;;;;;;;2.14;84.60;96126.30;107871;1249;99160;-80
2024/01/06 02:15:22;;;;;;;50.90;29.50;;;;;;;2.15;84.65;96123.34;107487;1241;98051;-79
2024/01/06 02:17:49;;;;;;;58.10;33.00;;;;;;;2.15;84.72;96124.21;107778;1241;99126;-84
2024/01/06 02:20:19;;;;;;;58.80;35.70;;;;;;;2.15;84.73;96123.52;107828;1238;99187;-82
2024/01/06 02:22:47;;;;;;;58.30;34.70;;;;;;;2.16;84.71;96122.70;108230;1235;101201;-83
2024/01/06 02:25:13;;;;;;;57.60;32.90;;;;;;;2.17;84.78;96124.92;107826;1241;97965;-85
2024/01/06 02:27:40;;;;;;;53.80;33.90;;;;;;;2.19;84.79;96123.45;107808;1249;97930;-79
2024/01/06 02:30:07;;;;;;;51.00;31.00;;;;;;;2.20;84.85;96119.33;107814;1247;97912;-82
2024/01/06 02:32:34;;;;;;;52.60;30.10;;;;;;;2.21;84.85;96117.61;107818;1249;98380;-80
2024/01/06 02:35:01;;;;;;;50.90;29.70;;;;;;;2.24;84.96;96118.51;107837;1246;97985;-80
2024/01/06 02:37:27;;;;;;;47.80;30.10;;;;;;;2.27;84.94;96119.53;107811;1235;98396;-79
2024/01/06 02:39:54;;;;;;;53.90;32.20;;;;;;;2.30;84.98;96122.90;107835;1246;97915;-78
2024/01/06 02:42:20;;;;;;;45.90;30.60;;;;;;;2.30;84.98;96123.77;107917;1241;97860;-78
2024/01/06 02:44:46;;;;;;;37.50;24.90;;;;;;;2.32;85.02;96130.42;107863;1241;97925;-85
2024/01/06 02:47:13;;;;;;;40.80;24.80;;;;;;;2.34;85.16;96125.40;107803;1240;97909;-87
2024/01/06 02:49:39;;;;;;;36.10;24.20;;;;;;;2.37;85.17;96121.83;107806;1240;98859;-88
2024/01/06 02:52:06;;;;;;;41.00;25.40;;;;;;;2.41;85.10;96122.80;107810;1249;97815;-87
2024/01/06 02:54:32;;;;;;;38.80;25.90;;;;;;;2.44;85.06;96123.06;107888;1235;97915;-86
2024/01/06 02:56:59;;;;;;;43.30;27.70;;;;;;;2.47;85.13;96122.89;107766;1241;98215;-86
2024/01/06 02:59:25;;;;;;;45.40;28.40;;;;;;;2.48;85.15;96119.14;107806;1249;98935;-89
2024/01/06 03:01:51;;;;;;;41.30;25.50;;;;;;;2.50;85.03;96111.16;107833;1235;99125;-83
2024/01/06 03:04:18;;;;;;;38.50;23.10;;;;;;;2.50;85.09;96112.56;107868;1240;97923;-77
2024/01/06 03:06:46;;;;;;;37.60;24.50;;;;;;;2.52;85.12;96115.33;107760;1246;97883;-77
2024/01/06 03:09:12;;;;;;;38.00;24.80;;;;;;;2.53;85.10;96115.66;107816;1239;98340;-78
2024/01/06 03:11:38;;;;;;;32.90;21.70;;;;;;;2.55;85.16;96108.57;107815;1236;97962;-77
2024/01/06 03:14:05;;;;;;;31.80;21.30;;;;;;;2.56;85.12;96111.00;107800;1235;97997;-78
2024/01/06 03:16:31;;;;;;;31.20;19.70;;;;;;;2.57;85.17;96111.16;107925;1247;99131;-79
2024/01/06 03:18:57;;;;;;;35.30;19.90;;;;;;;2.58;85.22;96109.86;107838;1244;99051;-81
2024/01/06 03:21:26;;;;;;;33.70;20.70;;;;;;;2.59;85.29;96112.04;107799;1238;97914;-83
2024/01/06 03:23:55;;;;;;;31.40;20.60;;;;;;;2.59;85.25;96110.08;107845;1240;97906;-85
2024/01/06 03:26:21;;;;;;;35.10;22.30;;;;;;;2.59;85.20;96108.44;107829;1248;99626;-87
2024/01/06 03:28:50;;;;;;;49.10;23.60;;;;;;;2.60;85.24;96110.79;107829;1248;98810;-88
2024/01/06 03:31:17;;;;;;;47.70;24.20;;;;;;;2.60;85.24;96106.32;107797;1239;98504;-84
2024/01/06 03:33:44;;;;;;;39.60;21.40;;;;;;;2.61;85.28;96106.58;107805;1241;97909;-83
2024/01/06 03:36:13;;;;;;;39.80;20.90;;;;;;;2.61;85.31;96106.73;107802;1247;97885;-82
2024/01/06 03:38:39;;;;;;;36.50;21.50;;;;;;;2.61;85.34;96111.33;107799;1239;97906;-83
2024/01/06 03:41:06;;;;;;;39.60;21.30;;;;;;;2.63;85.47;96110.48;107835;1249;98858;-86
2024/01/06 03:43:32;;;;;;;41.30;20.80;;;;;;;2.67;85.61;96107.77;107818;1250;97908;-83
2024/01/06 03:46:00;;;;;;;43.80;21.50;;;;;;;2.70;85.51;96104.58;107809;1236;97880;-87
2024/01/06 03:48:26;;;;;;;36.90;20.90;;;;;;;2.71;85.51;96100.74;107827;1249;99869;-87
2024/01/06 03:50:53;;;;;;;39.40;21.10;;;;;;;2.70;85.49;96098.97;107839;1241;97934;-83
2024/01/06 03:53:19;;;;;;;33.50;20.80;;;;;;;2.72;85.51;96101.83;107870;1238;98347;-87
2024/01/06 03:55:46;;;;;;;33.20;20.40;;;;;;;2.72;85.49;96098.21;107886;1243;99128;-86
2024/01/06 03:58:12;;;;;;;41.10;21.60;;;;;;;2.73;85.54;96094.45;107826;1238;99802;-86
2024/01/06 04:00:38;;;;;;;34.20;20.70;;;;;;;2.72;85.44;96091.29;107824;1245;99046;-84
2024/01/06 04:03:06;;;;;;;37.00;21.00;;;;;;;2.72;85.58;96086.65;107845;1249;98827;-84
2024/01/06 04:05:33;;;;;;;38.20;22.10;;;;;;;2.73;85.62;96086.38;107863;1238;97937;-83
2024/01/06 04:07:59;;;;;;;36.40;21.30;;;;;;;2.73;85.63;96086.05;107874;1238;97961;-84
2024/01/06 04:10:26;;;;;;;34.10;20.10;;;;;;;2.75;85.62;96083.52;107852;1239;97982;-82
2024/01/06 04:12:52;;;;;;;36.80;21.80;;;;;;;2.75;85.66;96083.15;107827;1238;98808;-83
2024/01/06 04:15:18;;;;;;;36.70;20.70;;;;;;;2.76;85.69;96084.47;107831;1240;99134;-83
2024/01/06 04:17:48;;;;;;;35.70;21.10;;;;;;;2.77;85.66;96085.91;107809;1246;98012;-80
2024/01/06 04:20:14;;;;;;;35.60;21.40;;;;;;;2.78;85.65;96084.71;107907;1236;97984;-80
2024/01/06 04:22:41;;;;;;;34.90;20.60;;;;;;;2.79;85.68;96082.26;107865;1235;97895;-77
2024/01/06 04:25:08;;;;;;;34.30;19.80;;;;;;;2.78;85.72;96083.89;107839;1237;97908;-79
2024/01/06 04:27:36;;;;;;;33.10;19.80;;;;;;;2.78;85.77;96084.80;107854;1250;98828;-79
2024/01/06 04:30:03;;;;;;;35.80;20.00;;;;;;;2.79;85.79;96087.34;107809;1238;97881;-78
2024/01/06 04:32:32;;;;;;;36.10;19.60;;;;;;;2.82;85.84;96087.70;107850;1247;99150;-77
2024/01/06 04:34:59;;;;;;;30.10;18.40;;;;;;;2.83;85.83;96089.14;107829;1250;103452;-78
2024/01/06 04:37:25;;;;;;;31.70;18.30;;;;;;;2.83;85.84;96093.05;107785;1239;97966;-78
2024/01/06 04:39:52;;;;;;;30.40;18.50;;;;;;;2.84;85.78;96097.02;107801;1248;98555;-86
2024/01/06 04:42:19;;;;;;;28.70;17.70;;;;;;;2.85;85.89;96099.02;108015;1243;98245;-82
2024/01/06 04:44:46;;;;;;;29.80;16.70;;;;;;;2.86;85.91;96101.23;107767;1238;103475;-82
2024/01/06 04:47:12;;;;;;;28.40;18.40;;;;;;;2.86;85.98;96101.67;107802;1248;98715;-80
2024/01/06 04:49:42;;;;;;;31.80;18.30;;;;;;;2.87;86.06;96098.82;107809;1238;97924;-81
2024/01/06 04:52:08;;;;;;;29.90;17.60;;;;;;;2.91;86.10;96096.20;107796;1246;97879;-79
2024/01/06 04:54:35;;;;;;;31.20;18.30;;;;;;;2.94;86.19;96103.93;107793;1238;98813;-79
2024/01/06 04:57:02;;;;;;;27.50;18.20;;;;;;;2.96;86.16;96104.90;107824;1240;99131;-79
2024/01/06 04:59:28;;;;;;;27.40;18.40;;;;;;;2.99;86.17;96110.78;107822;1241;99032;-83
2024/01/06 05:01:55;;;;;;;28.60;17.60;;;;;;;3.02;86.08;96111.48;107704;1235;98372;-79
2024/01/06 05:04:22;;;;;;;28.10;16.70;;;;;;;3.05;86.22;96115.69;107821;1241;99135;-79
2024/01/06 05:06:49;;;;;;;27.40;16.40;;;;;;;3.06;86.26;96114.10;107766;1241;99058;-79
2024/01/06 05:09:15;;;;;;;26.10;16.90;;;;;;;3.08;86.19;96121.37;107836;1248;98805;-80
2024/01/06 05:11:44;;;;;;;25.90;16.90;;;;;;;3.10;86.24;96120.36;107788;1248;99131;-80
2024/01/06 05:14:11;;;;;;;25.80;16.90;;;;;;;3.12;86.28;96119.52;107518;1248;97955;-79
2024/01/06 05:16:37;;;;;;;31.60;17.00;;;;;;;3.12;86.26;96119.94;107749;1248;97905;-80
2024/01/06 05:19:04;;;;;;;31.40;18.50;;;;;;;3.10;86.33;96120.83;107792;1240;97902;-81
2024/01/06 05:21:31;;;;;;;32.50;20.00;;;;;;;3.10;86.33;96119.09;107735;1249;98871;-79
2024/01/06 05:23:57;;;;;;;31.80;19.00;;;;;;;3.11;86.32;96114.95;107623;1241;97985;-80
2024/01/06 05:26:24;;;;;;;35.50;20.30;;;;;;;3.12;86.39;96114.77;107707;1249;98044;-80
2024/01/06 05:28:50;;;;;;;30.30;18.60;;;;;;;3.13;86.49;96117.52;107906;1241;98008;-79
2024/01/06 05:31:16;;;;;;;32.20;18.90;;;;;;;3.11;86.44;96117.27;107808;1248;99019;-79
2024/01/06 05:33:43;;;;;;;33.20;18.20;;;;;;;3.10;86.42;96121.06;107801;1247;99157;-78
2024/01/06 05:36:09;;;;;;;27.40;17.30;;;;;;;3.09;86.49;96125.08;107802;1239;99227;-85
2024/01/06 05:38:45;;;;;;;32.10;20.80;;;;;;;3.11;86.51;96134.68;107828;1238;97980;-83
2024/01/06 05:41:11;;;;;;;31.70;21.20;;;;;;;3.12;86.56;96140.20;107808;1247;98832;-83
2024/01/06 05:43:38;;;;;;;34.00;22.10;;;;;;;3.12;86.59;96147.00;107809;1239;98404;-84
2024/01/06 05:46:05;;;;;;;39.20;24.90;;;;;;;3.07;86.64;96144.95;107780;1239;97935;-78
2024/01/06 05:48:52;;;;;;;41.40;26.70;;;;;;;3.05;86.74;96144.11;107786;1247;97980;-77
2024/01/06 05:51:18;;;;;;;42.30;25.20;;;;;;;3.03;86.78;96141.34;107857;1235;101065;-77
2024/01/06 05:53:44;;;;;;;41.20;26.50;;;;;;;3.03;86.71;96141.14;107909;1247;97952;-77
2024/01/06 05:56:11;;;;;;;42.00;26.40;;;;;;;3.03;86.79;96140.49;107904;1240;97912;-79
2024/01/06 05:58:38;;;;;;;41.90;28.70;;;;;;;3.02;86.90;96138.48;107736;1247;99849;-80
2024/01/06 06:01:05;;;;;;;40.80;27.70;;;;;;;3.02;86.87;96135.55;107893;1247;101206;-79
2024/01/06 06:03:31;;;;;;;41.70;28.90;;;;;;;3.04;86.91;96135.23;107796;1249;97944;-80
2024/01/06 06:05:58;;;;;;;39.70;27.40;;;;;;;3.03;86.91;96139.05;107805;1247;97904;-80
2024/01/06 06:08:25;;;;;;;43.10;28.00;;;;;;;3.01;86.88;96140.20;107804;1238;98427;-80
2024/01/06 06:11:01;;;;;;;42.50;27.90;;;;;;;3.00;86.81;96141.73;107913;1235;98350;-79
2024/01/06 06:13:31;;;;;;;38.30;27.00;;;;;;;3.02;87.00;96140.98;107941;1236;100155;-80
2024/01/06 06:16:17;;;;;;;43.30;27.00;;;;;;;3.03;86.99;96143.64;107822;1238;98105;-79
2024/01/06 06:18:46;;;;;;;45.10;29.60;;;;;;;3.03;87.01;96144.87;107771;1238;98337;-80
2024/01/06 06:21:13;;;;;;;44.60;27.30;;;;;;;3.04;86.96;96148.73;107803;1238;101937;-79
2024/01/06 06:23:39;;;;;;;44.70;28.40;;;;;;;3.04;86.99;96149.06;107778;1246;97909;-82
2024/01/06 06:26:09;;;;;;;42.90;29.30;;;;;;;3.03;87.02;96143.64;107626;1249;99026;-79
2024/01/06 06:28:36;;;;;;;47.90;29.10;;;;;;;3.03;87.02;96143.27;107806;1246;97857;-79
2024/01/06 06:31:02;;;;;;;45.20;30.30;;;;;;;3.04;86.98;96143.73;107821;1237;99227;-84
2024/01/06 06:33:30;;;;;;;53.10;34.20;;;;;;;3.03;87.05;96144.88;107904;1239;97993;-79
2024/01/06 06:36:17;;;;;;;44.50;30.90;;;;;;;3.03;87.08;96142.09;107785;1246;97964;-77
2024/01/06 06:39:23;;;;;;;48.00;32.70;;;;;;;3.03;87.09;96141.51;107857;1238;100047;-81
2024/01/06 06:41:50;;;;;;;48.50;32.10;;;;;;;3.03;87.13;96141.34;108054;1235;99125;-77
2024/01/06 06:44:20;;;;;;;45.10;31.70;;;;;;;3.03;87.15;96142.58;107719;1249;98426;-79
2024/01/06 06:46:46;;;;;;;44.30;30.00;;;;;;;3.04;87.14;96142.29;107959;1238;103536;-88
2024/01/06 06:49:13;;;;;;;49.80;30.70;;;;;;;3.05;87.18;96148.05;107808;1245;97950;-88
2024/01/06 06:51:46;;;;;;;45.80;30.60;;;;;;;3.06;87.26;96153.72;107785;1247;97857;-88
2024/01/06 06:54:14;;;;;;;47.10;32.70;;;;;;;3.07;87.25;96155.70;107789;1246;97910;-87
2024/01/06 06:56:41;;;;;;;43.60;28.90;;;;;;;3.08;87.34;96153.82;107899;1241;97906;-83
2024/01/06 06:59:07;;;;;;;52.50;31.20;;;;;;;3.09;87.32;96153.41;107799;1249;99240;-85
2024/01/06 07:01:35;;;;;;;62.10;39.10;;;;;;;3.10;87.35;96156.75;107766;1246;99155;-78
2024/01/06 07:04:02;;;;;;;62.70;40.30;;;;;;;3.12;87.42;96155.79;107809;1241;97968;-77
2024/01/06 07:06:29;;;;;;;64.20;42.30;;;;;;;3.15;87.44;96157.55;107823;1237;98817;-78
2024/01/06 07:08:57;;;;;;;68.30;42.20;;;;;;;3.18;87.48;96156.34;107887;1242;99252;-78
2024/01/06 07:11:46;;;;;;;70.30;43.60;;;;;;;3.19;87.61;96159.88;107839;1238;99077;-77
2024/01/06 07:14:13;;;;;;;66.00;43.10;;;;;;;3.18;87.50;96159.09;107793;1238;99785;-77
2024/01/06 07:16:39;;;;;;;68.30;42.30;;;;;;;3.21;87.61;96161.00;107769;1246;97931;-78
2024/01/06 07:19:06;;;;;;;63.90;41.20;;;;;;;3.24;87.64;96163.69;107906;1238;98103;-77
2024/01/06 07:21:32;;;;;;;68.30;42.40;;;;;;;3.27;87.67;96163.29;107944;1238;98279;-77
2024/01/06 07:24:01;;;;;;;65.40;41.50;;;;;;;3.30;87.71;96162.94;107796;1235;100236;-77
2024/01/06 07:26:28;;;;;;;66.50;42.10;;;;;;;3.31;87.75;96170.48;107754;1239;99020;-77
2024/01/06 07:28:55;;;;;;;66.10;40.90;;;;;;;3.33;87.77;96172.93;107801;1249;97900;-77
2024/01/06 07:31:21;;;;;;;63.40;41.30;;;;;;;3.36;87.79;96170.70;107801;1238;99127;-79
2024/01/06 07:33:47;;;;;;;68.10;42.10;;;;;;;3.39;87.73;96178.84;107757;1239;98823;-89
2024/01/06 07:36:34;;;;;;;80.50;44.80;;;;;;;3.41;87.86;96182.37;107797;1235;99835;-84
2024/01/06 07:39:01;;;;;;;65.60;41.40;;;;;;;3.38;87.84;96184.65;107828;1235;97927;-83
2024/01/06 07:41:27;;;;;;;61.40;39.90;;;;;;;3.37;87.90;96186.66;107879;1246;97940;-83
2024/01/06 07:43:54;;;;;;;67.90;43.90;;;;;;;3.36;87.88;96189.74;107836;1246;99157;-83
2024/01/06 07:46:20;;;;;;;73.20;43.80;;;;;;;3.36;87.97;96189.98;107889;1240;97983;-86
2024/01/06 07:48:47;;;;;;;88.50;51.40;;;;;;;3.36;87.94;96188.64;107850;1238;97985;-87
2024/01/06 07:51:13;;;;;;;84.70;50.60;;;;;;;3.37;88.13;96186.66;107907;1239;98697;-83
2024/01/06 07:53:40;;;;;;;85.90;52.90;;;;;;;3.37;88.04;96184.47;107668;1244;98858;-84
2024/01/06 07:56:06;;;;;;;110.30;64.50;;;;;;;3.40;88.22;96186.70;107800;1238;98190;-82
2024/01/06 07:58:36;;;;;;;105.30;60.30;;;;;;;3.43;88.23;96190.75;107817;1242;97995;-82
2024/01/06 08:01:02;;;;;;;109.50;62.30;;;;;;;3.48;88.20;96194.29;107815;1249;98456;-80
2024/01/06 08:03:29;;;;;;;105.70;58.90;;;;;;;3.51;88.16;96196.04;107791;1247;99133;-79
2024/01/06 08:05:59;;;;;;;112.10;64.90;;;;;;;3.51;88.20;96197.61;107823;1236;97851;-78
2024/01/06 08:08:26;;;;;;;111.50;63.90;;;;;;;3.54;88.20;96201.98;107811;1238;100962;-79
2024/01/06 08:10:53;;;;;;;115.50;64.10;;;;;;;3.58;88.25;96199.18;107831;1248;97915;-78
2024/01/06 08:13:19;;;;;;;98.90;57.80;;;;;;;3.62;88.35;96195.42;107712;1236;97923;-83
2024/01/06 08:15:46;;;;;;;98.60;57.70;;;;;;;3.65;88.42;96197.69;107811;1247;98839;-85
2024/01/06 08:18:12;;;;;;;93.70;60.70;;;;;;;3.69;88.46;96201.09;107776;1237;97897;-84
2024/01/06 08:20:38;;;;;;;87.30;57.70;;;;;;;3.73;88.42;96198.81;107807;1239;99163;-84
2024/01/06 08:23:08;;;;;;;97.80;64.60;;;;;;;3.77;88.37;96194.55;107851;1238;99151;-83
2024/01/06 08:25:34;;;;;;;93.80;65.30;;;;;;;3.81;88.45;96196.51;107798;1237;103673;-84
2024/01/06 08:28:03;;;;;;;88.40;62.10;;;;;;;3.88;88.54;96198.48;107825;1235;97897;-83
2024/01/06 08:30:30;;;;;;;81.80;54.40;;;;;;;3.93;88.64;96204.33;107838;1238;98379;-83
2024/01/06 08:32:58;;;;;;;81.70;55.60;;;;;;;3.97;88.62;96203.44;107661;1249;97911;-79
2024/01/06 08:35:27;;;;;;;78.30;54.20;;;;;;;4.01;88.63;96200.31;107818;1238;99140;-77
2024/01/06 08:37:53;;;;;;;79.70;54.30;;;;;;;4.10;88.76;96201.17;107800;1238;103544;-77
2024/01/06 08:40:47;;;;;;;72.60;52.60;;;;;;;4.16;88.73;96196.92;107804;1239;99156;-78
2024/01/06 08:43:14;;;;;;;70.40;49.90;;;;;;;4.24;88.76;96193.33;107767;1238;99166;-78
2024/01/06 08:45:41;;;;;;;63.50;46.40;;;;;;;4.32;88.78;96194.75;107797;1239;98020;-78
2024/01/06 08:48:07;;;;;;;75.30;50.30;;;;;;;4.40;88.76;96193.36;107786;1238;99154;-89
2024/01/06 08:50:34;;;;;;;72.00;51.00;;;;;;;4.46;88.64;96190.23;107778;1247;99133;-88
2024/01/06 08:53:00;;;;;;;89.50;60.10;;;;;;;4.53;88.56;96191.76;107664;1237;99357;-87
2024/01/06 08:55:37;;;;;;;98.20;62.90;;;;;;;4.61;88.41;96193.28;107832;1239;97895;-88
2024/01/06 08:58:04;;;;;;;86.60;60.90;;;;;;;4.67;88.56;96190.48;107826;1239;98317;-88
2024/01/06 09:00:32;;;;;;;88.50;60.60;;;;;;;4.74;88.57;96193.92;107885;1246;103516;-88
2024/01/06 09:02:58;;;;;;;84.50;58.40;;;;;;;4.77;88.49;96189.52;107792;1238;98862;-88
2024/01/06 09:05:25;;;;;;;83.80;58.30;;;;;;;4.80;88.44;96183.81;107843;1237;99144;-87
2024/01/06 09:07:51;;;;;;;78.60;52.90;;;;;;;4.83;88.48;96179.77;107938;1238;97988;-88
2024/01/06 09:10:19;;;;;;;69.00;49.40;;;;;;;4.86;88.53;96179.19;107843;1239;103451;-77
2024/01/06 09:12:45;;;;;;;72.00;52.00;;;;;;;4.91;88.55;96175.34;107827;1238;100503;-78
2024/01/06 09:15:12;;;;;;;75.10;52.30;;;;;;;4.95;88.48;96172.24;107829;1243;97870;-81
2024/01/06 09:17:38;;;;;;;66.60;46.00;;;;;;;5.00;88.46;96168.42;107782;1238;97982;-77
2024/01/06 09:20:27;;;;;;;55.40;39.80;;;;;;;5.02;88.35;96168.30;107898;1234;97932;-77
2024/01/06 09:22:56;;;;;;;46.60;30.80;;;;;;;5.04;88.18;96171.44;107801;1239;101316;-77
2024/01/06 09:25:41;;;;;;;53.10;34.80;;;;;;;5.08;88.23;96173.73;107830;1247;100431;-77
2024/01/06 09:28:11;;;;;;;51.10;33.50;;;;;;;5.12;88.29;96171.95;107737;1235;97988;-78
2024/01/06 09:30:37;;;;;;;49.90;34.60;;;;;;;5.17;88.34;96170.06;107897;1238;98005;-82
2024/01/06 09:33:04;;;;;;;57.70;38.10;;;;;;;5.22;88.32;96169.39;107789;1238;97871;-83
2024/01/06 09:35:30;;;;;;;57.60;38.10;;;;;;;5.25;88.22;96167.45;107732;1239;98497;-82
2024/01/06 09:37:57;;;;;;;54.60;37.10;;;;;;;5.28;88.20;96165.36;107729;1238;98817;-82
2024/01/06 09:40:24;;;;;;;53.30;33.70;;;;;;;5.32;88.21;96167.52;107798;1243;98506;-82
2024/01/06 09:42:53;;;;;;;51.60;33.10;;;;;;;5.34;88.14;96165.34;107823;1245;98706;-83
2024/01/06 09:45:20;;;;;;;45.50;30.90;;;;;;;5.36;88.02;96166.65;107911;1249;100265;-83
2024/01/06 09:47:51;;;;;;;47.20;30.20;;;;;;;5.38;87.99;96160.55;107700;1249;97934;-78
2024/01/06 09:50:19;;;;;;;43.40;29.50;;;;;;;5.38;87.95;96153.68;107789;1247;97911;-80
2024/01/06 09:52:53;;;;;;;40.90;28.70;;;;;;;5.42;88.03;96155.52;107681;1240;97893;-80
2024/01/06 09:55:25;;;;;;;45.30;29.10;;;;;;;5.45;88.04;96152.27;107791;1238;103708;-80
2024/01/06 09:57:53;;;;;;;41.40;27.80;;;;;;;5.50;87.99;96154.31;107889;1238;101214;-80
2024/01/06 10:00:52;;;;;;;44.30;29.20;;;;;;;5.55;88.06;96155.91;107840;1246;99839;-79
2024/01/06 10:03:19;;;;;;;39.70;26.60;;;;;;;5.61;88.09;96152.39;107805;1238;98797;-82
2024/01/06 10:05:45;;;;;;;38.10;26.50;;;;;;;5.67;88.04;96148.28;107841;1247;98926;-79
2024/01/06 10:08:14;;;;;;;39.40;25.90;;;;;;;5.75;88.01;96142.91;107839;1238;98315;-78
2024/01/06 10:10:48;;;;;;;41.00;25.70;;;;;;;5.85;88.00;96144.08;107847;1239;99227;-78
2024/01/06 10:13:20;;;;;;;38.00;25.60;;;;;;;5.93;88.06;96142.24;107783;1238;98860;-77
2024/01/06 10:15:47;;;;;;;43.10;25.80;;;;;;;5.98;88.05;96143.13;107806;1238;97988;-88
2024/01/06 10:18:14;;;;;;;41.00;25.40;;;;;;;6.02;87.93;96141.18;107877;1244;98657;-87
2024/01/06 10:21:03;;;;;;;45.90;26.40;;;;;;;6.04;87.84;96138.48;107923;1239;98200;-89
2024/01/06 10:23:59;;;;;;;60.50;32.70;;;;;;;6.10;87.93;96136.45;107771;1240;100987;-77
2024/01/06 10:26:26;;;;;;;74.60;38.00;;;;;;;6.19;87.90;96135.73;107787;1239;101427;-89
2024/01/06 10:29:15;;;;;;;71.70;36.80;;;;;;;6.25;87.86;96132.36;107827;1239;97895;-88
2024/01/06 10:31:42;;;;;;;57.30;30.60;;;;;;;6.30;87.83;96132.28;107831;1248;98418;-82
2024/01/06 10:34:08;;;;;;;56.30;29.20;;;;;;;6.35;87.91;96129.58;107776;1235;98347;-83
2024/01/06 10:37:05;;;;;;;51.40;28.80;;;;;;;6.40;87.71;96124.88;107832;1245;97985;-82
2024/01/06 10:39:33;;;;;;;65.10;35.10;;;;;;;6.47;87.66;96118.44;107877;1236;98902;-82
2024/01/06 10:42:04;;;;;;;73.30;46.00;;;;;;;6.53;87.40;96115.17;107869;1238;97865;-82
2024/01/06 10:44:34;;;;;;;71.20;44.70;;;;;;;6.56;87.43;96111.90;107813;1239;99431;-82
2024/01/06 10:47:03;;;;;;;63.50;41.10;;;;;;;6.62;87.53;96113.02;107730;1238;103466;-78
2024/01/06 10:49:36;;;;;;;69.10;41.80;;;;;;;6.64;87.49;96114.85;107807;1243;101443;-78
2024/01/06 10:52:05;;;;;;;66.70;40.80;;;;;;;6.66;87.55;96116.52;107813;1249;99729;-77
2024/01/06 10:54:42;;;;;;;56.90;36.20;;;;;;;6.68;87.48;96121.58;107827;1238;97921;-77
2024/01/06 10:57:09;;;;;;;58.00;37.40;;;;;;;6.66;87.39;96116.40;107806;1239;98343;-77
2024/01/06 10:59:39;;;;;;;59.40;37.50;;;;;;;6.62;87.34;96115.12;107999;1235;102795;-77
2024/01/06 11:02:06;;;;;;;68.20;42.30;;;;;;;6.62;87.36;96108.86;107829;1239;100223;-89
2024/01/06 11:04:33;;;;;;;68.60;40.00;;;;;;;6.66;87.41;96103.20;107827;1235;97945;-82
2024/01/06 11:07:03;;;;;;;51.40;33.80;;;;;;;6.69;87.55;96100.20;107828;1239;97994;-82
2024/01/06 11:10:05;;;;;;;45.30;29.60;;;;;;;6.71;87.42;96099.37;107820;1238;98330;-82
2024/01/06 11:12:33;;;;;;;41.80;28.90;;;;;;;6.72;87.63;96094.25;107842;1238;102592;-83
2024/01/06 11:14:59;;;;;;;37.70;25.00;;;;;;;6.72;87.58;96090.13;107818;1238;101451;-83
2024/01/06 11:18:25;;;;;;;42.80;25.90;;;;;;;6.73;87.63;96088.67;107821;1235;97993;-77
2024/01/06 11:21:39;;;;;;;38.30;24.30;;;;;;;6.75;87.87;96091.47;106991;1245;98016;-77
2024/01/06 11:24:07;;;;;;;40.90;27.70;;;;;;;6.78;87.98;96090.16;106990;1254;163177;-79